Pechenga, Russia
Current Conditions -  °F | °C
As of 5:20 PM on Friday 31 Oct 2014 (Local Time) from ENKR Reporting Station
Scattered Clouds Scattered Clouds  
Wind Chill: 19°   Ceiling: Unl
Heat Index: 28°   Visibility: 6mi
Dew Point: 25°   Wind: 10mph
Humidity: 86%   Direction: 300°WNW
Pressure: 30.06"   Gusts: NA
Location:  69.55°N, 31.23°E
Report Text: ENKR 311420Z 30009KT 9999 FEW018 SCT049 M02/M04 Q1018 RMK WIND 731FT 30015KT
Loading
Personal Weather Stations






























Interactive Weather Map
Tropical Storm Tracking
New forecast layout! Learn more

10-Day Weather Forecast

Advertisements
Track Severe Weather on mobile